createdAt,value
2023-05-10T00:00:59.978Z,2.70
2023-05-10T00:01:59.986Z,2.50
2023-05-10T00:03:00.006Z,2.60
2023-05-10T00:03:59.955Z,2.70
2023-05-10T00:04:59.895Z,3.30
2023-05-10T00:05:59.967Z,3.30
2023-05-10T00:06:59.883Z,2.50
2023-05-10T00:07:59.877Z,3.60
2023-05-10T00:08:59.873Z,3.00
2023-05-10T00:09:59.822Z,3.70
2023-05-10T00:10:59.832Z,2.80
2023-05-10T00:11:59.855Z,3.80
2023-05-10T00:12:59.854Z,3.00
2023-05-10T00:13:59.809Z,3.20
2023-05-10T00:14:59.775Z,3.60
2023-05-10T00:15:59.771Z,2.60
2023-05-10T00:16:59.793Z,3.40
2023-05-10T00:17:59.842Z,3.00
2023-05-10T00:18:59.766Z,3.10
2023-05-10T00:19:59.738Z,3.40
2023-05-10T00:20:59.717Z,2.90
2023-05-10T00:21:59.694Z,3.20
2023-05-10T00:22:59.734Z,3.30
2023-05-10T00:23:59.673Z,3.30
2023-05-10T00:24:59.685Z,2.60
2023-05-10T00:25:59.645Z,3.10
2023-05-10T00:26:59.669Z,3.70
2023-05-10T00:27:59.648Z,2.90
2023-05-10T00:28:59.644Z,3.40
2023-05-10T00:29:59.634Z,2.80
2023-05-10T00:30:59.602Z,3.50
2023-05-10T00:31:59.652Z,2.50
2023-05-10T00:32:59.632Z,3.40
2023-05-10T00:33:59.566Z,3.80
2023-05-10T00:34:59.597Z,3.10
2023-05-10T00:35:59.564Z,3.30
2023-05-10T00:36:59.526Z,3.70
2023-05-10T00:37:59.498Z,3.00
2023-05-10T00:38:59.507Z,3.70
2023-05-10T00:39:59.513Z,3.90
2023-05-10T00:40:59.475Z,3.90
2023-05-10T00:41:59.469Z,3.70
2023-05-10T00:42:59.464Z,3.40
2023-05-10T00:43:59.453Z,3.30
2023-05-10T00:44:59.503Z,3.30
2023-05-10T00:45:59.448Z,4.30
2023-05-10T00:46:59.413Z,3.90
2023-05-10T00:47:59.407Z,2.80
2023-05-10T00:48:59.408Z,3.50
2023-05-10T00:49:59.363Z,3.30
2023-05-10T00:50:59.371Z,4.90
2023-05-10T00:51:59.348Z,4.80
2023-05-10T00:52:59.357Z,4.40
2023-05-10T00:53:59.330Z,4.90
2023-05-10T00:54:59.327Z,2.70
2023-05-10T00:55:59.345Z,3.00
2023-05-10T00:56:59.295Z,3.10
2023-05-10T00:57:59.284Z,3.60
2023-05-10T00:58:59.295Z,3.50
2023-05-10T00:59:59.255Z,3.10
2023-05-10T01:00:59.332Z,3.30
2023-05-10T01:01:59.259Z,3.30
2023-05-10T01:02:59.366Z,3.50
2023-05-10T01:03:59.220Z,3.30
2023-05-10T01:04:59.278Z,3.00
2023-05-10T01:05:59.184Z,2.80
2023-05-10T01:06:59.192Z,3.20
2023-05-10T01:07:59.179Z,3.80
2023-05-10T01:08:59.161Z,3.60
2023-05-10T01:09:59.202Z,3.30
2023-05-10T01:10:59.115Z,2.90
2023-05-10T01:11:59.161Z,3.40
2023-05-10T01:12:59.181Z,4.20
2023-05-10T01:13:59.091Z,3.00
2023-05-10T01:14:59.078Z,2.70
2023-05-10T01:15:59.138Z,3.30
2023-05-10T01:16:59.113Z,3.20
2023-05-10T01:17:59.092Z,3.30
2023-05-10T01:18:59.028Z,2.80
2023-05-10T01:19:59.025Z,2.60
2023-05-10T01:20:59.003Z,3.10
2023-05-10T01:21:59.045Z,2.60
2023-05-10T01:22:59.052Z,3.40
2023-05-10T01:23:58.979Z,3.40
2023-05-10T01:24:58.953Z,2.80
2023-05-10T01:25:58.935Z,2.50
2023-05-10T01:26:58.936Z,3.10
2023-05-10T01:27:58.940Z,3.10
2023-05-10T01:28:58.975Z,3.50
2023-05-10T01:30:14.126Z,3.10
2023-05-10T01:30:59.930Z,4.00
2023-05-10T01:31:58.892Z,4.10
2023-05-10T01:32:58.925Z,3.50
2023-05-10T01:33:58.900Z,3.50
2023-05-10T01:34:58.865Z,3.50
2023-05-10T01:35:58.879Z,3.20
2023-05-10T01:36:58.839Z,2.90
2023-05-10T01:37:58.842Z,3.50
2023-05-10T01:38:58.855Z,3.70
2023-05-10T01:39:58.794Z,2.50
2023-05-10T01:40:58.772Z,3.00
2023-05-10T01:41:58.785Z,2.80
2023-05-10T01:42:58.753Z,3.50
2023-05-10T01:43:58.749Z,2.60
2023-05-10T01:44:58.744Z,3.30
2023-05-10T01:45:58.758Z,3.90
2023-05-10T01:46:58.849Z,3.40
2023-05-10T01:47:58.729Z,3.10
2023-05-10T01:48:58.711Z,2.80
2023-05-10T01:49:58.681Z,3.00
2023-05-10T01:50:58.661Z,4.20
2023-05-10T01:51:58.626Z,4.30
2023-05-10T01:52:58.654Z,2.60
2023-05-10T01:53:58.648Z,3.20
2023-05-10T01:54:58.614Z,2.70
2023-05-10T01:55:58.612Z,2.80
2023-05-10T01:56:58.585Z,3.40
2023-05-10T01:57:58.602Z,2.60
2023-05-10T01:58:58.573Z,2.20
2023-05-10T01:59:58.572Z,3.10
2023-05-10T02:00:58.555Z,2.40
2023-05-10T02:01:58.563Z,2.60
2023-05-10T02:02:58.591Z,2.60
2023-05-10T02:03:58.556Z,3.00
2023-05-10T02:04:58.521Z,3.20
2023-05-10T02:05:58.469Z,4.00
2023-05-10T02:06:58.481Z,2.80
2023-05-10T02:07:58.485Z,2.40
2023-05-10T02:08:58.444Z,2.80
2023-05-10T02:09:58.448Z,2.70
2023-05-10T02:10:58.757Z,2.50
2023-05-10T02:11:58.412Z,2.70
2023-05-10T02:12:58.437Z,2.80
2023-05-10T02:13:58.395Z,3.10
2023-05-10T02:14:58.401Z,2.70
2023-05-10T02:15:58.403Z,3.20
2023-05-10T02:16:58.392Z,2.50
2023-05-10T02:17:58.419Z,2.60
2023-05-10T02:18:58.326Z,3.30
2023-05-10T02:19:58.333Z,2.80
2023-05-10T02:20:58.324Z,2.90
2023-05-10T02:21:58.309Z,2.50
2023-05-10T02:22:58.333Z,2.70
2023-05-10T02:23:58.295Z,4.20
2023-05-10T02:24:58.250Z,2.70
2023-05-10T02:25:58.242Z,2.20
2023-05-10T02:26:58.236Z,2.90
2023-05-10T02:27:58.280Z,3.00
2023-05-10T02:28:58.227Z,2.80
2023-05-10T02:29:58.230Z,2.90
2023-05-10T02:30:58.190Z,2.80
2023-05-10T02:31:58.288Z,3.00
2023-05-10T02:32:58.214Z,4.90
2023-05-10T02:33:58.183Z,3.40
2023-05-10T02:34:58.195Z,2.90
2023-05-10T02:35:58.133Z,2.90
2023-05-10T02:36:58.122Z,2.60
2023-05-10T02:37:58.119Z,2.30
2023-05-10T02:38:58.167Z,3.10
2023-05-10T02:39:58.100Z,2.70
2023-05-10T02:40:58.080Z,2.80
2023-05-10T02:41:58.077Z,2.40
2023-05-10T02:42:58.041Z,3.20
2023-05-10T02:43:58.049Z,2.50
2023-05-10T02:44:58.087Z,2.80
2023-05-10T02:45:58.081Z,3.20
2023-05-10T02:46:58.023Z,3.60
2023-05-10T02:47:58.048Z,2.90
2023-05-10T02:48:57.982Z,2.60
2023-05-10T02:49:58.003Z,4.00
2023-05-10T02:50:57.996Z,2.40
2023-05-10T02:51:57.949Z,2.80
2023-05-10T02:52:57.968Z,2.40
2023-05-10T02:53:57.912Z,2.60
2023-05-10T02:54:57.937Z,2.60
2023-05-10T02:55:57.926Z,3.40
2023-05-10T02:56:57.879Z,3.00
2023-05-10T02:57:57.908Z,3.00
2023-05-10T02:58:57.863Z,3.30
2023-05-10T02:59:57.881Z,2.90
2023-05-10T03:00:57.898Z,3.00
2023-05-10T03:01:57.923Z,3.10
2023-05-10T03:02:57.824Z,4.40
2023-05-10T03:03:57.804Z,3.80
2023-05-10T03:04:57.944Z,3.00
2023-05-10T03:05:57.799Z,2.90
2023-05-10T03:06:57.813Z,3.50
2023-05-10T03:07:57.783Z,2.70
2023-05-10T03:08:57.768Z,4.00
2023-05-10T03:09:57.751Z,3.00
2023-05-10T03:10:57.738Z,3.00
2023-05-10T03:11:57.723Z,2.70
2023-05-10T03:12:57.804Z,3.00
2023-05-10T03:13:57.693Z,2.50
2023-05-10T03:14:57.692Z,3.30
2023-05-10T03:15:57.774Z,2.70
2023-05-10T03:16:57.658Z,3.30
2023-05-10T03:17:57.668Z,3.80
2023-05-10T03:18:57.661Z,2.80
2023-05-10T03:19:57.616Z,3.10
2023-05-10T03:20:57.621Z,2.80
2023-05-10T03:21:57.679Z,2.80
2023-05-10T03:22:57.598Z,2.70
2023-05-10T03:23:57.609Z,3.40
2023-05-10T03:24:57.608Z,2.70
2023-05-10T03:25:57.560Z,3.10
2023-05-10T03:26:57.561Z,4.70
2023-05-10T03:27:57.564Z,2.80
2023-05-10T03:28:57.543Z,4.30
2023-05-10T03:29:57.514Z,3.00
2023-05-10T03:30:57.702Z,3.60
2023-05-10T03:31:57.552Z,3.20
2023-05-10T03:32:57.564Z,3.10
2023-05-10T03:33:57.473Z,3.20
2023-05-10T03:34:57.445Z,2.80
2023-05-10T03:35:57.472Z,3.40
2023-05-10T03:36:57.463Z,4.30
2023-05-10T03:37:57.440Z,4.10
2023-05-10T03:38:57.425Z,3.40
2023-05-10T03:39:57.417Z,3.00
2023-05-10T03:40:57.368Z,3.20
2023-05-10T03:41:57.394Z,3.50
2023-05-10T03:42:57.365Z,4.60
2023-05-10T03:43:57.369Z,3.20
2023-05-10T03:44:57.337Z,4.30
2023-05-10T03:45:57.315Z,3.40
2023-05-10T03:46:57.455Z,3.10
2023-05-10T03:47:57.356Z,3.90
2023-05-10T03:48:57.293Z,3.70
2023-05-10T03:49:57.309Z,3.00
2023-05-10T03:50:57.285Z,2.60
2023-05-10T03:51:57.309Z,3.30
2023-05-10T03:52:57.262Z,4.20
2023-05-10T03:53:57.244Z,2.70
2023-05-10T03:54:57.275Z,5.40
2023-05-10T03:55:57.207Z,3.50
2023-05-10T03:56:57.185Z,2.90
2023-05-10T03:57:57.254Z,2.70
2023-05-10T03:58:57.190Z,3.00
2023-05-10T03:59:57.162Z,3.00
2023-05-10T04:00:57.162Z,2.90
2023-05-10T04:01:57.215Z,3.30
2023-05-10T04:02:57.308Z,3.00
2023-05-10T04:03:57.242Z,4.50
2023-05-10T04:04:57.094Z,3.10
2023-05-10T04:05:57.124Z,3.20
2023-05-10T04:06:57.084Z,3.30
2023-05-10T04:07:57.114Z,3.20
2023-05-10T04:08:57.048Z,4.80
2023-05-10T04:09:57.054Z,2.80
2023-05-10T04:10:57.018Z,3.70
2023-05-10T04:11:57.029Z,3.30
2023-05-10T04:12:57.081Z,3.20
2023-05-10T04:13:56.998Z,3.10
2023-05-10T04:14:56.993Z,3.50
2023-05-10T04:15:56.996Z,4.10
2023-05-10T04:16:57.036Z,2.80
2023-05-10T04:17:56.969Z,3.20
2023-05-10T04:18:56.980Z,3.00
2023-05-10T04:19:56.938Z,3.10
2023-05-10T04:20:56.938Z,3.70
2023-05-10T04:21:56.905Z,2.70
2023-05-10T04:22:56.902Z,2.80
2023-05-10T04:23:56.894Z,3.20
2023-05-10T04:24:56.910Z,2.70
2023-05-10T04:25:56.867Z,3.00
2023-05-10T04:26:57.874Z,3.60
2023-05-10T04:27:56.843Z,3.70
2023-05-10T04:28:56.879Z,3.60
2023-05-10T04:29:56.822Z,3.40
2023-05-10T04:30:56.865Z,3.00
2023-05-10T04:31:56.790Z,3.10
2023-05-10T04:32:56.818Z,2.70
2023-05-10T04:33:56.828Z,4.30
2023-05-10T04:34:56.761Z,5.80
2023-05-10T04:35:56.782Z,3.60
2023-05-10T04:36:56.725Z,3.00
2023-05-10T04:37:56.726Z,4.50
2023-05-10T04:38:56.769Z,2.60
2023-05-10T04:39:56.692Z,3.70
2023-05-10T04:40:56.721Z,3.30
2023-05-10T04:41:56.696Z,4.90
2023-05-10T04:42:56.673Z,3.40
2023-05-10T04:43:56.698Z,3.20
2023-05-10T04:44:56.630Z,2.50
2023-05-10T04:45:56.651Z,2.70
2023-05-10T04:46:56.611Z,3.40
2023-05-10T04:47:56.639Z,3.90
2023-05-10T04:48:56.613Z,2.50
2023-05-10T04:49:56.609Z,3.30
2023-05-10T04:50:56.574Z,2.80
2023-05-10T04:51:56.574Z,3.20
2023-05-10T04:52:56.550Z,3.20
2023-05-10T04:54:05.273Z,2.80
2023-05-10T04:54:57.584Z,3.00
2023-05-10T04:55:56.513Z,4.00
2023-05-10T04:56:56.509Z,2.90
2023-05-10T04:57:56.476Z,3.20
2023-05-10T04:58:56.486Z,3.10
2023-05-10T04:59:56.481Z,4.10
2023-05-10T05:00:56.483Z,3.50
2023-05-10T05:01:56.480Z,3.30
2023-05-10T05:02:56.509Z,4.00
2023-05-10T05:03:56.559Z,2.70
2023-05-10T05:04:56.428Z,3.00
2023-05-10T05:05:56.434Z,4.00
2023-05-10T05:06:56.386Z,4.10
2023-05-10T05:07:56.376Z,3.10
2023-05-10T05:08:56.378Z,2.90
2023-05-10T05:09:56.364Z,3.30
2023-05-10T05:10:56.330Z,4.90
2023-05-10T05:11:56.349Z,4.10
2023-05-10T05:12:56.329Z,3.50
2023-05-10T05:13:56.311Z,3.50
2023-05-10T05:14:56.275Z,3.20
2023-05-10T05:15:56.328Z,3.90
2023-05-10T05:16:56.298Z,3.80
2023-05-10T05:17:56.277Z,3.20
2023-05-10T05:18:56.233Z,3.00
2023-05-10T05:19:56.248Z,3.30
2023-05-10T05:20:56.215Z,2.70
2023-05-10T05:21:56.266Z,4.10
2023-05-10T05:22:56.201Z,3.30
2023-05-10T05:23:56.189Z,3.30
2023-05-10T05:24:56.175Z,3.00
2023-05-10T05:25:56.146Z,3.80
2023-05-10T05:26:56.154Z,4.30
2023-05-10T05:27:56.194Z,3.50
2023-05-10T05:28:56.122Z,3.40
2023-05-10T05:29:56.140Z,3.00
2023-05-10T05:30:56.140Z,3.40
2023-05-10T05:31:56.117Z,3.50
2023-05-10T05:32:56.203Z,3.20
2023-05-10T05:33:56.061Z,4.00
2023-05-10T05:34:56.098Z,4.10
2023-05-10T05:35:56.038Z,3.50
2023-05-10T05:36:56.089Z,3.80
2023-05-10T05:37:56.034Z,3.10
2023-05-10T05:38:56.026Z,2.60
2023-05-10T05:39:56.057Z,3.00
2023-05-10T05:40:55.996Z,2.90
2023-05-10T05:41:56.005Z,3.30
2023-05-10T05:42:55.988Z,3.10
2023-05-10T05:43:55.975Z,3.10
2023-05-10T05:44:55.974Z,3.50
2023-05-10T05:45:56.014Z,3.50
2023-05-10T05:46:55.937Z,3.60
2023-05-10T05:47:56.050Z,3.70
2023-05-10T05:48:55.896Z,4.00
2023-05-10T05:49:55.892Z,3.30
2023-05-10T05:50:55.866Z,3.40
2023-05-10T05:51:56.928Z,3.00
2023-05-10T05:52:55.871Z,3.70
2023-05-10T05:53:55.825Z,4.60
2023-05-10T05:54:55.996Z,3.40
2023-05-10T05:55:55.847Z,3.30
2023-05-10T05:56:55.836Z,3.20
2023-05-10T05:57:55.794Z,2.80
2023-05-10T05:58:55.773Z,3.20
2023-05-10T05:59:55.761Z,3.70
2023-05-10T06:00:55.770Z,3.70
2023-05-10T06:01:55.872Z,3.70
2023-05-10T06:02:55.842Z,3.80
2023-05-10T06:03:55.852Z,3.90
2023-05-10T06:04:55.704Z,3.60
2023-05-10T06:05:55.694Z,3.00
2023-05-10T06:06:55.765Z,3.80
2023-05-10T06:07:55.676Z,2.90
2023-05-10T06:08:55.676Z,4.50
2023-05-10T06:09:55.679Z,3.30
2023-05-10T06:10:55.633Z,3.50
2023-05-10T06:11:55.636Z,3.90
2023-05-10T06:12:55.719Z,3.10
2023-05-10T06:13:55.612Z,4.80
2023-05-10T06:14:55.602Z,3.60
2023-05-10T06:15:55.582Z,3.90
2023-05-10T06:16:55.791Z,3.20
2023-05-10T06:17:55.606Z,3.60
2023-05-10T06:18:55.561Z,3.80
2023-05-10T06:19:55.543Z,3.00
2023-05-10T06:20:55.551Z,3.20
2023-05-10T06:21:55.524Z,3.10
2023-05-10T06:22:55.548Z,3.20
2023-05-10T06:23:55.506Z,3.50
2023-05-10T06:24:55.487Z,3.90
2023-05-10T06:25:55.494Z,5.90
2023-05-10T06:26:55.459Z,4.30
2023-05-10T06:27:55.465Z,3.50
2023-05-10T06:28:55.468Z,3.30
2023-05-10T06:30:02.111Z,3.50
2023-05-10T06:30:56.411Z,2.80
2023-05-10T06:31:55.573Z,3.30
2023-05-10T06:32:55.481Z,3.40
2023-05-10T06:33:56.766Z,2.70
2023-05-10T06:34:55.410Z,3.40
2023-05-10T06:35:55.358Z,3.20
2023-05-10T06:36:55.351Z,3.60
2023-05-10T06:37:55.326Z,2.80
2023-05-10T06:38:55.364Z,3.60
2023-05-10T06:39:55.326Z,3.70
2023-05-10T06:40:55.293Z,3.20
2023-05-10T06:41:55.275Z,2.80
2023-05-10T06:42:55.275Z,3.40
2023-05-10T06:43:55.268Z,3.80
2023-05-10T06:44:55.295Z,4.00
2023-05-10T06:45:55.260Z,3.30
2023-05-10T06:46:55.257Z,3.40
2023-05-10T06:47:55.269Z,4.20
2023-05-10T06:48:55.225Z,3.50
2023-05-10T06:49:55.177Z,3.60
2023-05-10T06:50:55.222Z,3.50
2023-05-10T06:51:55.167Z,3.50
2023-05-10T06:52:55.163Z,3.50
2023-05-10T06:53:55.147Z,3.60
2023-05-10T06:54:55.187Z,3.80
2023-05-10T06:55:55.167Z,4.10
2023-05-10T06:56:55.156Z,4.60
2023-05-10T06:57:55.121Z,3.50
2023-05-10T06:58:55.138Z,4.90
2023-05-10T06:59:55.076Z,5.10
2023-05-10T07:00:55.162Z,5.10
2023-05-10T07:01:55.194Z,3.00
2023-05-10T07:02:55.099Z,3.60
2023-05-10T07:03:55.028Z,3.00
2023-05-10T07:04:55.150Z,3.50
2023-05-10T07:05:55.005Z,4.10
2023-05-10T07:06:55.015Z,3.60
2023-05-10T07:07:54.992Z,3.90
2023-05-10T07:08:55.031Z,3.50
2023-05-10T07:09:54.965Z,4.60
2023-05-10T07:10:54.955Z,4.30
2023-05-10T07:11:54.926Z,6.10
2023-05-10T07:12:55.002Z,4.70
2023-05-10T07:13:54.930Z,3.70
2023-05-10T07:14:54.905Z,3.80
2023-05-10T07:15:54.945Z,4.00
2023-05-10T07:16:54.872Z,4.70
2023-05-10T07:17:55.025Z,3.90
2023-05-10T07:18:54.849Z,4.50
2023-05-10T07:19:54.866Z,3.50
2023-05-10T07:20:54.883Z,3.50
2023-05-10T07:21:54.827Z,3.30
2023-05-10T07:22:54.869Z,4.90
2023-05-10T07:23:54.800Z,4.00
2023-05-10T07:24:54.796Z,4.10
2023-05-10T07:25:54.861Z,4.00
2023-05-10T07:26:54.766Z,4.30
2023-05-10T07:27:54.795Z,3.50
2023-05-10T07:28:54.746Z,4.30
2023-05-10T07:29:54.731Z,4.10
2023-05-10T07:30:54.800Z,3.80
2023-05-10T07:31:56.493Z,4.30
2023-05-10T07:32:54.851Z,4.20
2023-05-10T07:33:54.685Z,3.90
2023-05-10T07:34:54.713Z,4.10
2023-05-10T07:35:54.663Z,3.70
2023-05-10T07:36:54.676Z,4.40
2023-05-10T07:37:54.675Z,4.00
2023-05-10T07:38:54.657Z,3.80
2023-05-10T07:39:54.612Z,3.90
2023-05-10T07:40:54.631Z,3.70
2023-05-10T07:41:54.584Z,3.60
2023-05-10T07:42:54.576Z,4.20
2023-05-10T07:43:54.624Z,4.00
2023-05-10T07:44:54.557Z,4.10
2023-05-10T07:45:56.262Z,6.20
2023-05-10T07:46:54.551Z,3.80
2023-05-10T07:47:54.576Z,4.50
2023-05-10T07:48:54.579Z,3.70
2023-05-10T07:49:54.496Z,5.10
2023-05-10T07:50:54.521Z,5.30
2023-05-10T07:51:54.500Z,5.20
2023-05-10T07:52:54.470Z,3.70
2023-05-10T07:53:54.459Z,5.00
2023-05-10T07:54:54.471Z,3.90
2023-05-10T07:55:54.495Z,4.90
2023-05-10T07:56:54.460Z,5.10
2023-05-10T07:57:54.414Z,4.20
2023-05-10T07:58:54.412Z,3.70
2023-05-10T07:59:54.408Z,3.50
2023-05-10T08:00:54.394Z,3.90
2023-05-10T08:01:54.397Z,4.30
2023-05-10T08:02:54.545Z,5.60
2023-05-10T08:03:54.631Z,4.60
2023-05-10T08:04:54.390Z,3.80
2023-05-10T08:05:54.316Z,4.20
2023-05-10T08:06:54.305Z,3.70
2023-05-10T08:07:54.304Z,4.10
2023-05-10T08:08:54.291Z,5.40
2023-05-10T08:09:54.290Z,4.80
2023-05-10T08:10:54.258Z,4.10
2023-05-10T08:11:54.265Z,4.40
2023-05-10T08:12:54.237Z,4.70
2023-05-10T08:13:54.237Z,4.40
2023-05-10T08:14:54.221Z,3.90
2023-05-10T08:15:54.283Z,3.80
2023-05-10T08:16:54.199Z,3.50
2023-05-10T08:17:54.209Z,4.80
2023-05-10T08:18:54.174Z,4.20
2023-05-10T08:19:54.161Z,3.90
2023-05-10T08:20:54.149Z,4.00
2023-05-10T08:21:54.174Z,5.00
2023-05-10T08:22:54.121Z,5.30
2023-05-10T08:23:54.145Z,3.80
2023-05-10T08:24:54.079Z,3.70
2023-05-10T08:25:54.075Z,4.60
2023-05-10T08:26:54.112Z,4.40
2023-05-10T08:27:54.050Z,4.60
2023-05-10T08:28:54.061Z,4.40
2023-05-10T08:29:54.020Z,4.90
2023-05-10T08:30:54.063Z,3.80
2023-05-10T08:31:54.070Z,4.10
2023-05-10T08:32:54.025Z,3.50
2023-05-10T08:33:53.992Z,4.20
2023-05-10T08:34:54.004Z,4.20
2023-05-10T08:35:53.975Z,4.50
2023-05-10T08:36:53.959Z,3.80
2023-05-10T08:37:54.006Z,3.60
2023-05-10T08:38:53.985Z,3.60
2023-05-10T08:39:53.920Z,3.90
2023-05-10T08:40:53.922Z,3.50
2023-05-10T08:41:53.894Z,4.00
2023-05-10T08:42:53.878Z,3.60
2023-05-10T08:43:53.910Z,4.80
2023-05-10T08:44:53.906Z,4.30
2023-05-10T08:45:53.914Z,4.30
2023-05-10T08:46:53.891Z,3.60
2023-05-10T08:47:53.904Z,3.20
2023-05-10T08:48:53.856Z,4.30
2023-05-10T08:49:53.821Z,3.90
2023-05-10T08:50:53.837Z,3.40
2023-05-10T08:51:53.803Z,3.60
2023-05-10T08:52:53.758Z,3.60
2023-05-10T08:53:53.781Z,3.30
2023-05-10T08:54:53.798Z,3.70
2023-05-10T08:55:53.727Z,3.60
2023-05-10T08:56:53.724Z,4.70
2023-05-10T08:57:53.957Z,3.50
2023-05-10T08:58:53.702Z,3.60
2023-05-10T08:59:53.798Z,3.70
2023-05-10T09:00:53.791Z,3.70
2023-05-10T09:01:53.695Z,4.00
2023-05-10T09:02:53.712Z,4.50
2023-05-10T09:03:53.696Z,4.00
2023-05-10T09:04:53.790Z,3.70
2023-05-10T09:05:53.643Z,3.80
2023-05-10T09:06:53.616Z,3.60
2023-05-10T09:07:53.596Z,3.30
2023-05-10T09:08:53.657Z,3.70
2023-05-10T09:09:53.573Z,3.20
2023-05-10T09:10:53.564Z,4.00
2023-05-10T09:11:53.557Z,3.00
2023-05-10T09:12:53.549Z,3.60
2023-05-10T09:13:53.601Z,3.00
2023-05-10T09:14:53.520Z,2.80
2023-05-10T09:15:53.485Z,3.00
2023-05-10T09:16:53.531Z,4.00
2023-05-10T09:17:53.534Z,3.80
2023-05-10T09:18:53.491Z,3.80
2023-05-10T09:19:53.503Z,3.10
2023-05-10T09:20:53.458Z,3.70
2023-05-10T09:21:53.469Z,3.00
2023-05-10T09:22:53.432Z,3.60
2023-05-10T09:23:53.426Z,3.30
2023-05-10T09:24:53.404Z,3.80
2023-05-10T09:25:53.458Z,3.50
2023-05-10T09:26:53.425Z,3.30
2023-05-10T09:27:53.405Z,3.30
2023-05-10T09:28:53.351Z,3.30
2023-05-10T09:29:53.349Z,3.10
2023-05-10T09:30:53.367Z,3.40
2023-05-10T09:31:53.413Z,2.80
2023-05-10T09:32:53.340Z,2.70
2023-05-10T09:33:53.319Z,2.80
2023-05-10T09:34:53.319Z,2.90
2023-05-10T09:35:53.299Z,2.80
2023-05-10T09:36:53.266Z,3.20
2023-05-10T09:37:53.273Z,2.50
2023-05-10T09:38:53.225Z,2.90
2023-05-10T09:39:53.290Z,2.70
2023-05-10T09:40:53.221Z,2.70
2023-05-10T09:41:53.198Z,2.90
2023-05-10T09:42:53.233Z,3.30
2023-05-10T09:43:53.173Z,2.60
2023-05-10T09:44:53.180Z,2.50
2023-05-10T09:45:53.223Z,3.70
2023-05-10T09:46:53.169Z,2.80
2023-05-10T09:47:53.211Z,2.90
2023-05-10T09:48:53.361Z,3.20
2023-05-10T09:49:53.138Z,3.80
2023-05-10T09:50:53.106Z,3.20
2023-05-10T09:51:53.095Z,2.70
2023-05-10T09:52:53.118Z,3.10
2023-05-10T09:53:53.122Z,2.90
2023-05-10T09:54:53.066Z,3.90
2023-05-10T09:55:53.039Z,3.10
2023-05-10T09:56:53.059Z,3.30
2023-05-10T09:57:53.031Z,3.40
2023-05-10T09:58:53.073Z,3.40
2023-05-10T09:59:53.008Z,3.20
2023-05-10T10:00:52.992Z,3.00
2023-05-10T10:01:52.994Z,2.60
2023-05-10T10:02:53.004Z,3.30
2023-05-10T10:03:52.967Z,2.60
2023-05-10T10:04:53.006Z,2.60
2023-05-10T10:05:52.963Z,2.70
2023-05-10T10:06:52.967Z,2.80
2023-05-10T10:07:52.899Z,3.10
2023-05-10T10:08:54.932Z,2.30
2023-05-10T10:09:52.902Z,2.90
2023-05-10T10:10:52.900Z,2.80
2023-05-10T10:11:53.172Z,2.70
2023-05-10T10:12:52.851Z,2.20
2023-05-10T10:13:52.884Z,2.30
2023-05-10T10:14:52.950Z,2.40
2023-05-10T10:15:52.876Z,2.50
2023-05-10T10:17:06.383Z,2.50
2023-05-10T10:17:53.870Z,3.10
2023-05-10T10:18:52.884Z,2.80
2023-05-10T10:19:52.768Z,2.60
2023-05-10T10:20:52.801Z,3.10
2023-05-10T10:21:52.772Z,3.10
2023-05-10T10:22:52.906Z,2.70
2023-05-10T10:23:52.716Z,3.30
2023-05-10T10:24:52.951Z,3.20
2023-05-10T10:25:52.692Z,2.20
2023-05-10T10:26:52.756Z,2.60
2023-05-10T10:27:52.749Z,2.60
2023-05-10T10:28:52.702Z,2.30
2023-05-10T10:29:52.672Z,2.10
2023-05-10T10:30:52.661Z,3.30
2023-05-10T10:31:52.739Z,2.70
2023-05-10T10:32:52.696Z,2.90
2023-05-10T10:33:52.652Z,2.70
2023-05-10T10:34:52.652Z,2.40
2023-05-10T10:35:52.674Z,2.30
2023-05-10T10:36:52.583Z,2.80
2023-05-10T10:37:52.565Z,2.70
2023-05-10T10:38:52.585Z,2.90
2023-05-10T10:39:52.536Z,2.80
2023-05-10T10:40:52.593Z,2.80
2023-05-10T10:41:52.529Z,2.60
2023-05-10T10:42:52.520Z,2.60
2023-05-10T10:43:52.499Z,3.30
2023-05-10T10:44:52.488Z,2.80
2023-05-10T10:45:52.536Z,2.30
2023-05-10T10:46:52.495Z,2.80
2023-05-10T10:47:52.480Z,3.10
2023-05-10T10:48:52.446Z,2.50
2023-05-10T10:49:52.452Z,2.00
2023-05-10T10:50:52.445Z,2.30
2023-05-10T10:51:52.436Z,2.50
2023-05-10T10:52:52.414Z,2.00
2023-05-10T10:53:52.380Z,2.80
2023-05-10T10:54:52.622Z,2.80
2023-05-10T10:55:52.374Z,2.80
2023-05-10T10:56:52.383Z,2.70
2023-05-10T10:57:52.351Z,2.80
2023-05-10T10:58:52.324Z,2.20
2023-05-10T10:59:52.308Z,2.50
2023-05-10T11:00:52.360Z,2.50
2023-05-10T11:01:52.309Z,2.50
2023-05-10T11:02:52.359Z,2.30
2023-05-10T11:03:52.367Z,3.20
2023-05-10T11:04:52.261Z,3.00
2023-05-10T11:05:52.291Z,3.50
2023-05-10T11:06:52.474Z,3.00
2023-05-10T11:07:52.224Z,2.30
2023-05-10T11:08:52.203Z,3.20
2023-05-10T11:09:52.229Z,2.70
2023-05-10T11:10:52.201Z,2.10
2023-05-10T11:11:52.231Z,2.30
2023-05-10T11:12:52.195Z,2.10
2023-05-10T11:13:52.169Z,3.20
2023-05-10T11:14:52.174Z,2.50
2023-05-10T11:15:52.121Z,2.10
2023-05-10T11:16:52.190Z,1.90
2023-05-10T11:17:52.157Z,2.70
2023-05-10T11:18:52.111Z,1.90
2023-05-10T11:19:52.086Z,2.30
2023-05-10T11:20:52.106Z,2.00
2023-05-10T11:21:52.126Z,2.00
2023-05-10T11:22:52.061Z,2.50
2023-05-10T11:23:52.051Z,2.00
2023-05-10T11:24:52.021Z,2.30
2023-05-10T11:25:52.042Z,2.00
2023-05-10T11:26:51.999Z,2.30
2023-05-10T11:27:52.026Z,3.30
2023-05-10T11:28:51.967Z,3.20
2023-05-10T11:29:51.991Z,4.30
2023-05-10T11:30:53.064Z,2.90
2023-05-10T11:31:51.963Z,2.30
2023-05-10T11:32:51.979Z,1.70
2023-05-10T11:33:51.914Z,1.30
2023-05-10T11:34:51.913Z,1.10
2023-05-10T11:35:51.936Z,0.70
2023-05-10T11:36:51.880Z,0.60
2023-05-10T11:37:51.889Z,0.90
2023-05-10T11:38:51.898Z,0.70
2023-05-10T11:39:51.872Z,1.00
2023-05-10T11:40:51.832Z,1.20
2023-05-10T11:41:51.879Z,1.80
2023-05-10T11:42:51.822Z,0.70
2023-05-10T11:43:51.844Z,1.20
2023-05-10T11:44:51.818Z,0.60
2023-05-10T11:45:51.861Z,0.50
2023-05-10T11:46:51.860Z,0.40
2023-05-10T11:47:51.765Z,1.20
2023-05-10T11:48:51.801Z,2.10
2023-05-10T11:49:51.802Z,5.50
2023-05-10T11:50:51.726Z,3.00
2023-05-10T11:51:51.735Z,1.30
2023-05-10T11:52:51.706Z,0.80
2023-05-10T11:53:51.705Z,0.40
2023-05-10T11:54:51.707Z,0.40
2023-05-10T11:55:51.711Z,0.60
2023-05-10T11:56:51.651Z,0.90
2023-05-10T11:57:51.649Z,0.50
2023-05-10T11:58:51.687Z,0.30
2023-05-10T11:59:51.634Z,1.10
2023-05-10T12:00:51.603Z,0.80
2023-05-10T12:01:51.608Z,0.20
2023-05-10T12:02:51.670Z,0.50
2023-05-10T12:03:51.720Z,0.30
2023-05-10T12:04:51.611Z,0.50
2023-05-10T12:05:51.550Z,0.40
2023-05-10T12:06:51.603Z,0.60
2023-05-10T12:07:51.521Z,1.10
2023-05-10T12:08:51.524Z,1.30
2023-05-10T12:09:51.532Z,0.70
2023-05-10T12:10:51.487Z,0.20
2023-05-10T12:11:51.489Z,0.30
2023-05-10T12:12:51.508Z,0.80
2023-05-10T12:13:51.689Z,0.70
2023-05-10T12:14:51.506Z,1.10
2023-05-10T12:15:51.443Z,1.50
2023-05-10T12:16:51.534Z,1.00
2023-05-10T12:17:51.492Z,0.50
2023-05-10T12:18:51.436Z,0.90
2023-05-10T12:19:51.396Z,0.60
2023-05-10T12:20:51.413Z,0.90
2023-05-10T12:21:51.363Z,0.60
2023-05-10T12:22:51.380Z,0.60
2023-05-10T12:23:51.392Z,1.00
2023-05-10T12:24:51.340Z,0.60
2023-05-10T12:25:51.341Z,0.60
2023-05-10T12:26:51.300Z,0.80
2023-05-10T12:27:51.309Z,0.40
2023-05-10T12:28:51.303Z,0.50
2023-05-10T12:29:51.311Z,0.40
2023-05-10T12:30:51.292Z,0.50
2023-05-10T12:31:51.313Z,1.40
2023-05-10T12:32:51.249Z,0.40
2023-05-10T12:33:51.254Z,0.30
2023-05-10T12:34:51.207Z,0.60
2023-05-10T12:35:51.188Z,0.90
2023-05-10T12:36:51.208Z,1.70
2023-05-10T12:37:51.219Z,1.20
2023-05-10T12:38:51.180Z,2.40
2023-05-10T12:39:51.158Z,0.70
2023-05-10T12:40:51.201Z,0.90
2023-05-10T12:41:51.137Z,1.60
2023-05-10T12:42:51.161Z,0.80
2023-05-10T12:43:51.160Z,0.50
2023-05-10T12:44:51.117Z,1.00
2023-05-10T12:45:51.123Z,1.40
2023-05-10T12:46:51.073Z,0.60
2023-05-10T12:47:51.119Z,1.80
2023-05-10T12:48:57.534Z,1.00
2023-05-10T12:49:52.107Z,0.30
2023-05-10T12:50:51.036Z,0.90
2023-05-10T12:51:51.011Z,1.20
2023-05-10T12:52:51.012Z,0.50
2023-05-10T12:53:51.018Z,0.40
2023-05-10T12:54:51.022Z,0.30
2023-05-10T12:55:50.981Z,0.90
2023-05-10T12:56:51.215Z,0.60
2023-05-10T12:57:50.943Z,0.40
2023-05-10T12:58:50.934Z,1.20
2023-05-10T12:59:50.927Z,0.30
2023-05-10T13:00:50.999Z,0.40
2023-05-10T13:01:50.974Z,0.30
2023-05-10T13:02:50.908Z,0.50
2023-05-10T13:03:50.909Z,0.50
2023-05-10T13:04:51.203Z,0.40
2023-05-10T13:05:50.906Z,0.70
2023-05-10T13:06:50.852Z,0.30
2023-05-10T13:07:50.822Z,0.70
2023-05-10T13:08:50.829Z,0.20
2023-05-10T13:09:50.831Z,0.70
2023-05-10T13:10:50.816Z,0.20
2023-05-10T13:11:50.806Z,0.30
2023-05-10T13:12:50.807Z,0.20
2023-05-10T13:13:50.775Z,0.90
2023-05-10T13:14:50.771Z,0.40
2023-05-10T13:15:50.758Z,0.80
2023-05-10T13:16:50.754Z,0.60
2023-05-10T13:17:50.792Z,0.40
2023-05-10T13:18:50.821Z,0.70